Time,TemperatureF,DewpointF,PressureIn,WindDirection,WindDirectionDegrees,WindSpeedMPH,WindSpeedGustMPH,Humidity,HourlyPrecipIn,Conditions,Clouds,dailyrainin,SoftwareType,DateUTC
2013-02-20 00:01:00,29.2,26.9,29.86,SSE,158,0.0,0.0,91,0.00,,,0.00,WUHU216HW,2013-02-20 08:01:00,
2013-02-20 00:02:00,29.0,26.7,29.86,SSE,158,0.0,0.0,91,0.00,,,0.00,WUHU216HW,2013-02-20 08:02:00,
2013-02-20 00:03:00,29.0,26.7,29.86,SSE,158,0.0,0.0,91,0.00,,,0.00,WUHU216HW,2013-02-20 08:03:00,
2013-02-20 00:04:00,29.0,26.7,29.86,SSE,158,0.0,0.0,91,0.00,,,0.00,WUHU216HW,2013-02-20 08:04:00,
2013-02-20 00:06:00,29.2,26.9,29.86,SSE,158,0.0,0.0,91,0.00,,,0.00,WUHU216HW,2013-02-20 08:06:00,
2013-02-20 00:07:00,29.2,26.9,29.86,SSE,158,0.4,0.4,91,0.00,,,0.00,WUHU216HW,2013-02-20 08:07:00,
2013-02-20 00:08:00,29.2,26.9,29.86,SSE,158,0.2,0.4,91,0.00,,,0.00,WUHU216HW,2013-02-20 08:08:00,
2013-02-20 00:09:00,29.2,26.6,29.86,SSW,203,0.4,0.4,90,0.00,,,0.00,WUHU216HW,2013-02-20 08:09:00,
2013-02-20 00:10:00,29.2,26.6,29.86,SSW,203,0.4,0.4,90,0.00,,,0.00,WUHU216HW,2013-02-20 08:10:00,
2013-02-20 00:13:00,29.2,26.6,29.86,South,180,0.7,0.7,90,0.00,,,0.00,WUHU216HW,2013-02-20 08:13:00,
2013-02-20 00:14:00,29.2,26.9,29.86,South,180,0.7,0.7,91,0.00,,,0.00,WUHU216HW,2013-02-20 08:14:00,
2013-02-20 00:15:00,29.2,26.9,29.86,South,180,0.4,0.7,91,0.00,,,0.00,WUHU216HW,2013-02-20 08:15:00,
2013-02-20 00:17:00,29.3,26.8,29.86,SSW,203,0.7,0.7,90,0.00,,,0.00,WUHU216HW,2013-02-20 08:17:00,
2013-02-20 00:18:00,29.3,26.8,29.86,SSW,203,0.7,0.7,90,0.00,,,0.00,WUHU216HW,2013-02-20 08:18:00,
2013-02-20 00:19:00,29.3,26.8,29.86,South,180,0.4,0.7,90,0.00,,,0.00,WUHU216HW,2013-02-20 08:19:00,
2013-02-20 00:20:00,29.5,27.0,29.86,SSE,158,0.9,0.9,90,0.00,,,0.00,WUHU216HW,2013-02-20 08:20:00,
2013-02-20 00:22:00,29.5,27.0,29.86,South,180,0.4,0.9,90,0.00,,,0.00,WUHU216HW,2013-02-20 08:22:00,
2013-02-20 00:23:00,29.5,27.0,29.86,SSW,203,0.7,0.9,90,0.00,,,0.00,WUHU216HW,2013-02-20 08:23:00,
2013-02-20 00:24:00,29.5,27.0,29.86,SSW,203,0.7,0.9,90,0.00,,,0.00,WUHU216HW,2013-02-20 08:24:00,
2013-02-20 00:25:00,29.5,27.0,29.86,SSW,203,0.7,0.9,90,0.00,,,0.00,WUHU216HW,2013-02-20 08:25:00,
2013-02-20 00:26:00,29.7,27.2,29.86,SSW,203,0.0,0.9,90,0.00,,,0.00,WUHU216HW,2013-02-20 08:26:00,
2013-02-20 00:28:00,29.7,27.5,29.86,SSW,203,0.0,0.9,91,0.00,,,0.00,WUHU216HW,2013-02-20 08:28:00,
2013-02-20 00:29:00,29.7,27.5,29.86,ESE,113,0.0,0.9,91,0.00,,,0.00,WUHU216HW,2013-02-20 08:29:00,
2013-02-20 00:30:00,29.7,27.5,29.86,ESE,113,0.0,0.9,91,0.00,,,0.00,WUHU216HW,2013-02-20 08:30:00,
2013-02-20 00:31:00,29.7,27.5,29.86,ESE,113,0.0,0.7,91,0.00,,,0.00,WUHU216HW,2013-02-20 08:31:00,
2013-02-20 00:33:00,29.7,27.5,29.86,ESE,113,0.0,0.7,91,0.00,,,0.00,WUHU216HW,2013-02-20 08:33:00,
2013-02-20 00:34:00,29.7,27.5,29.86,ESE,113,0.0,0.7,91,0.00,,,0.00,WUHU216HW,2013-02-20 08:34:00,
2013-02-20 00:35:00,29.9,27.6,29.86,ESE,113,0.0,0.0,91,0.00,,,0.00,WUHU216HW,2013-02-20 08:35:00,
2013-02-20 00:36:00,29.9,27.6,29.86,ESE,113,0.0,0.0,91,0.00,,,0.00,WUHU216HW,2013-02-20 08:36:00,
2013-02-20 00:38:00,29.9,27.6,29.86,SE,135,0.0,0.0,91,0.00,,,0.00,WUHU216HW,2013-02-20 08:38:00,
2013-02-20 00:39:00,29.9,27.6,29.86,SE,135,0.0,0.0,91,0.00,,,0.00,WUHU216HW,2013-02-20 08:39:00,
2013-02-20 00:40:00,29.9,27.6,29.86,SE,135,0.0,0.0,91,0.00,,,0.00,WUHU216HW,2013-02-20 08:40:00,
2013-02-20 00:41:00,29.9,27.6,29.86,SE,135,0.4,0.4,91,0.00,,,0.00,WUHU216HW,2013-02-20 08:41:00,
2013-02-20 00:42:00,29.9,27.6,29.86,SE,135,0.9,0.9,91,0.00,,,0.00,WUHU216HW,2013-02-20 08:42:00,
2013-02-20 00:44:00,29.9,27.6,29.86,SE,135,0.7,0.9,91,0.00,,,0.00,WUHU216HW,2013-02-20 08:44:00,
2013-02-20 00:45:00,29.9,27.6,29.86,SE,135,0.4,0.9,91,0.00,,,0.00,WUHU216HW,2013-02-20 08:45:00,
2013-02-20 00:46:00,29.9,27.6,29.86,SE,135,0.0,0.9,91,0.00,,,0.00,WUHU216HW,2013-02-20 08:46:00,
2013-02-20 00:47:00,29.9,27.6,29.86,SE,135,0.4,0.9,91,0.00,,,0.00,WUHU216HW,2013-02-20 08:47:00,
2013-02-20 00:49:00,29.9,27.6,29.86,SSE,158,0.9,0.9,91,0.00,,,0.00,WUHU216HW,2013-02-20 08:49:00,
2013-02-20 00:50:00,30.1,27.8,29.86,SSE,158,0.9,0.9,91,0.00,,,0.00,WUHU216HW,2013-02-20 08:50:00,
2013-02-20 00:51:00,30.1,27.8,29.86,SSE,158,0.2,0.9,91,0.00,,,0.00,WUHU216HW,2013-02-20 08:51:00,
2013-02-20 00:52:00,30.1,27.8,29.86,SSE,158,0.0,0.9,91,0.00,,,0.00,WUHU216HW,2013-02-20 08:52:00,
2013-02-20 00:54:00,30.1,27.8,29.86,SSE,158,0.0,0.9,91,0.00,,,0.00,WUHU216HW,2013-02-20 08:54:00,
2013-02-20 00:55:00,30.1,27.8,29.86,SSE,158,0.0,0.9,91,0.00,,,0.00,WUHU216HW,2013-02-20 08:55:00,
2013-02-20 00:56:00,30.1,27.8,29.86,SSE,158,0.0,0.9,91,0.00,,,0.00,WUHU216HW,2013-02-20 08:56:00,
2013-02-20 00:57:00,30.1,27.8,29.86,SSE,158,0.0,0.9,91,0.00,,,0.00,WUHU216HW,2013-02-20 08:57:00,
2013-02-20 00:58:00,30.1,27.8,29.86,SSE,158,0.0,0.9,91,0.00,,,0.00,WUHU216HW,2013-02-20 08:58:00,
2013-02-20 00:59:00,29.9,27.6,29.86,SSE,158,0.0,0.2,91,0.00,,,0.00,WUHU216HW,2013-02-20 08:59:00,
2013-02-20 01:02:00,30.1,27.8,29.86,SSW,203,0.7,0.7,91,0.00,,,0.00,WUHU216HW,2013-02-20 09:02:00,
2013-02-20 01:03:00,30.1,27.8,29.86,SSW,203,0.7,0.7,91,0.00,,,0.00,WUHU216HW,2013-02-20 09:03:00,
2013-02-20 01:04:00,29.9,27.6,29.86,SSW,203,0.4,0.7,91,0.00,,,0.00,WUHU216HW,2013-02-20 09:04:00,
2013-02-20 01:05:00,30.1,27.8,29.86,SSW,203,0.2,0.7,91,0.00,,,0.00,WUHU216HW,2013-02-20 09:05:00,
2013-02-20 01:07:00,30.1,27.8,29.86,South,180,0.4,0.7,91,0.00,,,0.00,WUHU216HW,2013-02-20 09:07:00,
2013-02-20 01:08:00,30.1,27.8,29.86,South,180,0.2,0.7,91,0.00,,,0.00,WUHU216HW,2013-02-20 09:08:00,
2013-02-20 01:09:00,30.1,27.8,29.86,SE,135,0.9,0.9,91,0.00,,,0.00,WUHU216HW,2013-02-20 09:09:00,
2013-02-20 01:10:00,30.2,28.0,29.86,SE,135,0.7,0.9,91,0.00,,,0.00,WUHU216HW,2013-02-20 09:10:00,
2013-02-20 01:11:00,30.2,28.0,29.86,SE,135,0.9,0.9,91,0.00,,,0.00,WUHU216HW,2013-02-20 09:11:00,
2013-02-20 01:13:00,30.2,28.0,29.86,SE,135,0.0,0.9,91,0.00,,,0.00,WUHU216HW,2013-02-20 09:13:00,
2013-02-20 01:14:00,30.2,28.0,29.86,South,180,0.4,0.9,91,0.00,,,0.00,WUHU216HW,2013-02-20 09:14:00,
2013-02-20 01:15:00,30.2,28.0,29.86,South,180,0.4,0.9,91,0.00,,,0.00,WUHU216HW,2013-02-20 09:15:00,
2013-02-20 01:16:00,30.2,28.0,29.86,South,180,0.0,0.9,91,0.00,,,0.00,WUHU216HW,2013-02-20 09:16:00,
2013-02-20 01:18:00,30.2,28.0,29.86,South,180,0.4,0.9,91,0.00,,,0.00,WUHU216HW,2013-02-20 09:18:00,
2013-02-20 01:19:00,30.2,28.0,29.86,South,180,0.2,0.9,91,0.00,,,0.00,WUHU216HW,2013-02-20 09:19:00,
2013-02-20 01:20:00,30.2,28.0,29.86,SSE,158,0.7,0.9,91,0.00,,,0.00,WUHU216HW,2013-02-20 09:20:00,
2013-02-20 01:21:00,30.2,28.0,29.86,SSE,158,0.4,0.7,91,0.00,,,0.00,WUHU216HW,2013-02-20 09:21:00,
2013-02-20 01:23:00,30.2,28.0,29.86,SSE,158,0.4,0.7,91,0.00,,,0.00,WUHU216HW,2013-02-20 09:23:00,
2013-02-20 01:24:00,30.2,28.0,29.86,SSE,158,0.0,0.7,91,0.00,,,0.00,WUHU216HW,2013-02-20 09:24:00,
2013-02-20 01:25:00,30.2,28.0,29.86,SSE,158,0.0,0.7,91,0.00,,,0.00,WUHU216HW,2013-02-20 09:25:00,
2013-02-20 01:26:00,30.2,28.0,29.86,SSE,158,0.0,0.7,91,0.00,,,0.00,WUHU216HW,2013-02-20 09:26:00,
2013-02-20 01:27:00,30.2,28.0,29.86,SSE,158,0.0,0.7,91,0.00,,,0.00,WUHU216HW,2013-02-20 09:27:00,
2013-02-20 01:29:00,30.1,27.8,29.86,SSE,158,0.0,0.7,91,0.00,,,0.00,WUHU216HW,2013-02-20 09:29:00,
2013-02-20 01:30:00,30.1,27.8,29.86,SSE,158,0.0,0.4,91,0.00,,,0.00,WUHU216HW,2013-02-20 09:30:00,
2013-02-20 01:31:00,30.1,27.8,29.86,SSE,158,0.0,0.4,91,0.00,,,0.00,WUHU216HW,2013-02-20 09:31:00,
2013-02-20 01:32:00,30.1,27.8,29.86,SSE,158,0.0,0.4,91,0.00,,,0.00,WUHU216HW,2013-02-20 09:32:00,
2013-02-20 01:34:00,29.9,27.6,29.86,SSE,158,0.0,0.0,91,0.00,,,0.00,WUHU216HW,2013-02-20 09:34:00,
2013-02-20 01:35:00,29.9,27.6,29.86,SSE,158,0.0,0.0,91,0.00,,,0.00,WUHU216HW,2013-02-20 09:35:00,
2013-02-20 01:36:00,29.9,27.6,29.86,SSE,158,0.0,0.0,91,0.00,,,0.00,WUHU216HW,2013-02-20 09:36:00,
2013-02-20 01:37:00,29.9,27.6,29.86,SSE,158,0.0,0.0,91,0.00,,,0.00,WUHU216HW,2013-02-20 09:37:00,
2013-02-20 01:39:00,29.9,27.6,29.86,SSE,158,0.0,0.0,91,0.00,,,0.00,WUHU216HW,2013-02-20 09:39:00,
2013-02-20 01:40:00,29.9,27.6,29.86,SSE,158,0.0,0.0,91,0.00,,,0.00,WUHU216HW,2013-02-20 09:40:00,
2013-02-20 01:41:00,29.9,27.6,29.86,SSE,158,0.0,0.0,91,0.00,,,0.00,WUHU216HW,2013-02-20 09:41:00,
2013-02-20 01:42:00,29.7,27.5,29.86,SSE,158,0.0,0.0,91,0.00,,,0.00,WUHU216HW,2013-02-20 09:42:00,
2013-02-20 01:43:00,29.7,27.5,29.86,SSE,158,0.0,0.0,91,0.00,,,0.00,WUHU216HW,2013-02-20 09:43:00,
2013-02-20 01:45:00,29.5,27.3,29.86,SSE,158,0.0,0.0,91,0.00,,,0.00,WUHU216HW,2013-02-20 09:45:00,
2013-02-20 01:46:00,29.5,27.3,29.86,SSE,158,0.0,0.0,91,0.00,,,0.00,WUHU216HW,2013-02-20 09:46:00,
2013-02-20 01:47:00,29.5,27.3,29.86,SSE,158,0.0,0.0,91,0.00,,,0.00,WUHU216HW,2013-02-20 09:47:00,
2013-02-20 01:48:00,29.5,27.3,29.86,SSE,158,0.0,0.0,91,0.00,,,0.00,WUHU216HW,2013-02-20 09:48:00,
2013-02-20 01:50:00,29.3,27.1,29.86,SSE,158,0.0,0.0,91,0.00,,,0.00,WUHU216HW,2013-02-20 09:50:00,
2013-02-20 01:52:00,29.3,27.1,29.86,SSE,158,0.0,0.0,91,0.00,,,0.00,WUHU216HW,2013-02-20 09:52:00,
2013-02-20 01:53:00,29.2,26.9,29.86,SSE,158,0.0,0.0,91,0.00,,,0.00,WUHU216HW,2013-02-20 09:53:00,
2013-02-20 01:55:00,29.2,26.9,29.86,SSE,158,0.0,0.0,91,0.00,,,0.00,WUHU216HW,2013-02-20 09:55:00,
2013-02-20 01:56:00,29.2,26.9,29.86,SSE,158,0.0,0.0,91,0.00,,,0.00,WUHU216HW,2013-02-20 09:56:00,
2013-02-20 01:57:00,29.2,26.9,29.86,SSE,158,0.0,0.0,91,0.00,,,0.00,WUHU216HW,2013-02-20 09:57:00,
2013-02-20 01:58:00,29.2,26.9,29.86,SSE,158,0.4,0.4,91,0.00,,,0.00,WUHU216HW,2013-02-20 09:58:00,
2013-02-20 01:59:00,29.2,26.9,29.86,SSE,158,0.9,1.1,91,0.00,,,0.00,WUHU216HW,2013-02-20 09:59:00,
2013-02-20 02:01:00,29.2,26.9,29.86,SSE,158,0.9,1.1,91,0.00,,,0.00,WUHU216HW,2013-02-20 10:01:00,
2013-02-20 02:02:00,29.3,27.1,29.86,SSE,158,0.2,1.1,91,0.00,,,0.00,WUHU216HW,2013-02-20 10:02:00,
2013-02-20 02:04:00,29.2,26.9,29.86,SSE,158,0.4,1.1,91,0.00,,,0.00,WUHU216HW,2013-02-20 10:04:00,
2013-02-20 02:06:00,29.2,26.9,29.86,SSE,158,0.7,1.1,91,0.00,,,0.00,WUHU216HW,2013-02-20 10:06:00,
2013-02-20 02:08:00,29.2,26.9,29.86,SSE,158,0.7,1.1,91,0.00,,,0.00,WUHU216HW,2013-02-20 10:08:00,
2013-02-20 02:09:00,29.2,26.9,29.86,SSE,158,0.4,1.1,91,0.00,,,0.00,WUHU216HW,2013-02-20 10:09:00,
2013-02-20 02:10:00,29.2,26.9,29.86,SSE,158,0.4,0.9,91,0.00,,,0.00,WUHU216HW,2013-02-20 10:10:00,
2013-02-20 02:11:00,29.2,26.9,29.86,SSE,158,0.4,0.7,91,0.00,,,0.00,WUHU216HW,2013-02-20 10:11:00,
2013-02-20 02:13:00,29.2,26.9,29.86,SSE,158,0.0,0.7,91,0.00,,,0.00,WUHU216HW,2013-02-20 10:13:00,
2013-02-20 02:14:00,29.2,26.9,29.86,SSE,158,0.0,0.7,91,0.00,,,0.00,WUHU216HW,2013-02-20 10:14:00,
2013-02-20 02:15:00,29.2,26.9,29.86,SSE,158,0.0,0.7,91,0.00,,,0.00,WUHU216HW,2013-02-20 10:15:00,
2013-02-20 02:16:00,29.2,26.9,29.86,SSE,158,0.0,0.7,91,0.00,,,0.00,WUHU216HW,2013-02-20 10:16:00,
2013-02-20 02:17:00,29.0,26.7,29.86,SSE,158,0.0,0.4,91,0.00,,,0.00,WUHU216HW,2013-02-20 10:17:00,
2013-02-20 02:19:00,28.8,26.6,29.86,SSE,158,0.0,0.4,91,0.00,,,0.00,WUHU216HW,2013-02-20 10:19:00,
2013-02-20 02:20:00,28.6,26.4,29.86,SSE,158,0.0,0.4,91,0.00,,,0.00,WUHU216HW,2013-02-20 10:20:00,
2013-02-20 02:21:00,28.6,26.7,29.86,SSE,158,0.0,0.0,92,0.00,,,0.00,WUHU216HW,2013-02-20 10:21:00,
2013-02-20 02:22:00,28.6,26.7,29.86,SSE,158,0.0,0.0,92,0.00,,,0.00,WUHU216HW,2013-02-20 10:22:00,
2013-02-20 02:24:00,28.6,26.7,29.86,SSE,158,0.0,0.0,92,0.00,,,0.00,WUHU216HW,2013-02-20 10:24:00,
2013-02-20 02:25:00,28.6,26.7,29.86,SSE,158,0.0,0.0,92,0.00,,,0.00,WUHU216HW,2013-02-20 10:25:00,
2013-02-20 02:26:00,28.4,26.5,29.86,SSE,158,0.0,0.0,92,0.00,,,0.00,WUHU216HW,2013-02-20 10:26:00,
2013-02-20 02:27:00,28.4,26.5,29.86,SSE,158,0.0,0.0,92,0.00,,,0.00,WUHU216HW,2013-02-20 10:27:00,
2013-02-20 02:29:00,28.4,26.2,29.86,SSE,158,0.0,0.0,91,0.00,,,0.00,WUHU216HW,2013-02-20 10:29:00,
2013-02-20 02:30:00,28.4,26.2,29.86,SSE,158,0.0,0.0,91,0.00,,,0.00,WUHU216HW,2013-02-20 10:30:00,
2013-02-20 02:31:00,28.3,26.0,29.86,SSE,158,0.0,0.0,91,0.00,,,0.00,WUHU216HW,2013-02-20 10:31:00,
2013-02-20 02:32:00,28.3,26.0,29.86,SSE,158,0.0,0.0,91,0.00,,,0.00,WUHU216HW,2013-02-20 10:32:00,
2013-02-20 02:33:00,28.1,25.8,29.86,SSE,158,0.0,0.0,91,0.00,,,0.00,WUHU216HW,2013-02-20 10:33:00,
2013-02-20 02:35:00,28.1,25.8,29.86,SSE,158,0.0,0.0,91,0.00,,,0.00,WUHU216HW,2013-02-20 10:35:00,
2013-02-20 02:36:00,27.9,25.7,29.86,SSE,158,0.0,0.0,91,0.00,,,0.00,WUHU216HW,2013-02-20 10:36:00,
2013-02-20 02:37:00,27.9,25.7,29.86,SSE,158,0.0,0.0,91,0.00,,,0.00,WUHU216HW,2013-02-20 10:37:00,
2013-02-20 02:38:00,27.7,25.5,29.86,SSE,158,0.0,0.0,91,0.00,,,0.00,WUHU216HW,2013-02-20 10:38:00,
2013-02-20 02:40:00,27.7,25.5,29.86,SSE,158,0.0,0.0,91,0.00,,,0.00,WUHU216HW,2013-02-20 10:40:00,
2013-02-20 02:41:00,27.7,25.5,29.86,SSE,158,0.0,0.0,91,0.00,,,0.00,WUHU216HW,2013-02-20 10:41:00,
2013-02-20 02:42:00,27.7,25.5,29.86,SSE,158,0.0,0.0,91,0.00,,,0.00,WUHU216HW,2013-02-20 10:42:00,
2013-02-20 02:43:00,27.9,25.7,29.86,SSE,158,0.0,0.0,91,0.00,,,0.00,WUHU216HW,2013-02-20 10:43:00,
2013-02-20 02:45:00,27.7,25.5,29.86,SSE,158,0.0,0.0,91,0.00,,,0.00,WUHU216HW,2013-02-20 10:45:00,
2013-02-20 02:46:00,27.7,25.5,29.86,SSE,158,0.0,0.0,91,0.00,,,0.00,WUHU216HW,2013-02-20 10:46:00,
2013-02-20 02:47:00,27.7,25.5,29.86,SSE,158,0.0,0.0,91,0.00,,,0.00,WUHU216HW,2013-02-20 10:47:00,
2013-02-20 02:48:00,27.7,25.5,29.87,SSE,158,0.0,0.0,91,0.00,,,0.00,WUHU216HW,2013-02-20 10:48:00,
2013-02-20 02:50:00,27.5,25.3,29.87,SSE,158,0.0,0.0,91,0.00,,,0.00,WUHU216HW,2013-02-20 10:50:00,
2013-02-20 02:51:00,27.5,25.3,29.87,SSE,158,0.0,0.0,91,0.00,,,0.00,WUHU216HW,2013-02-20 10:51:00,
2013-02-20 02:52:00,27.5,25.3,29.87,SSE,158,0.0,0.0,91,0.00,,,0.00,WUHU216HW,2013-02-20 10:52:00,
2013-02-20 02:53:00,27.4,25.1,29.87,SSE,158,0.0,0.0,91,0.00,,,0.00,WUHU216HW,2013-02-20 10:53:00,
2013-02-20 02:54:00,27.4,25.1,29.87,SSE,158,0.0,0.0,91,0.00,,,0.00,WUHU216HW,2013-02-20 10:54:00,
2013-02-20 02:56:00,27.5,25.6,29.88,SSE,158,0.0,0.0,92,0.00,,,0.00,WUHU216HW,2013-02-20 10:56:00,
2013-02-20 02:57:00,27.5,25.6,29.88,SSE,158,0.0,0.0,92,0.00,,,0.00,WUHU216HW,2013-02-20 10:57:00,
2013-02-20 02:58:00,27.5,25.3,29.88,SSE,158,0.0,0.0,91,0.00,,,0.00,WUHU216HW,2013-02-20 10:58:00,
2013-02-20 02:59:00,27.4,25.1,29.87,SSE,158,0.0,0.0,91,0.00,,,0.00,WUHU216HW,2013-02-20 10:59:00,
2013-02-20 03:00:00,27.4,25.1,29.88,SSE,158,0.0,0.0,91,0.00,,,0.00,WUHU216HW,2013-02-20 11:00:00,
2013-02-20 03:02:00,27.4,25.1,29.88,SSE,158,0.0,0.0,91,0.00,,,0.00,WUHU216HW,2013-02-20 11:02:00,
2013-02-20 03:04:00,27.4,25.4,29.88,SSE,158,0.0,0.0,92,0.00,,,0.00,WUHU216HW,2013-02-20 11:04:00,
2013-02-20 03:05:00,27.4,25.4,29.88,SSE,158,0.0,0.0,92,0.00,,,0.00,WUHU216HW,2013-02-20 11:05:00,
2013-02-20 03:06:00,27.4,25.4,29.88,SSE,158,0.0,0.0,92,0.00,,,0.00,WUHU216HW,2013-02-20 11:06:00,
2013-02-20 03:07:00,27.4,25.1,29.88,SSE,158,0.0,0.0,91,0.00,,,0.00,WUHU216HW,2013-02-20 11:07:00,
2013-02-20 03:09:00,27.4,25.1,29.88,West,270,0.0,0.0,91,0.00,,,0.00,WUHU216HW,2013-02-20 11:09:00,
2013-02-20 03:10:00,27.5,25.3,29.88,West,270,0.0,0.0,91,0.00,,,0.00,WUHU216HW,2013-02-20 11:10:00,
2013-02-20 03:11:00,27.5,25.6,29.88,NNW,338,0.0,0.0,92,0.00,,,0.00,WUHU216HW,2013-02-20 11:11:00,
2013-02-20 03:12:00,27.5,25.6,29.88,NNW,338,0.0,0.0,92,0.00,,,0.00,WUHU216HW,2013-02-20 11:12:00,
2013-02-20 03:14:00,27.7,25.8,29.88,NNW,338,0.0,0.0,92,0.00,,,0.00,WUHU216HW,2013-02-20 11:14:00,
2013-02-20 03:15:00,27.7,25.8,29.88,NNW,338,0.0,0.0,92,0.00,,,0.00,WUHU216HW,2013-02-20 11:15:00,
2013-02-20 03:16:00,27.7,25.8,29.88,NNW,338,0.0,0.0,92,0.00,,,0.00,WUHU216HW,2013-02-20 11:16:00,
2013-02-20 03:17:00,27.7,25.8,29.88,NNW,338,0.0,0.0,92,0.00,,,0.00,WUHU216HW,2013-02-20 11:17:00,
2013-02-20 03:18:00,27.7,25.8,29.88,NNW,338,0.0,0.0,92,0.00,,,0.00,WUHU216HW,2013-02-20 11:18:00,
2013-02-20 03:20:00,27.9,25.9,29.88,NNW,338,0.0,0.0,92,0.00,,,0.00,WUHU216HW,2013-02-20 11:20:00,
2013-02-20 03:21:00,28.1,26.1,29.88,NNW,338,0.0,0.0,92,0.00,,,0.00,WUHU216HW,2013-02-20 11:21:00,
2013-02-20 03:22:00,28.1,26.1,29.88,NNW,338,0.0,0.0,92,0.00,,,0.00,WUHU216HW,2013-02-20 11:22:00,
2013-02-20 03:23:00,28.1,26.1,29.88,NNW,338,0.0,0.0,92,0.00,,,0.00,WUHU216HW,2013-02-20 11:23:00,
2013-02-20 03:25:00,28.1,26.1,29.88,NNW,338,0.0,0.0,92,0.00,,,0.00,WUHU216HW,2013-02-20 11:25:00,
2013-02-20 03:26:00,28.3,26.3,29.88,NNW,338,0.0,0.0,92,0.00,,,0.00,WUHU216HW,2013-02-20 11:26:00,
2013-02-20 03:27:00,28.3,26.3,29.88,NNW,338,0.0,0.0,92,0.00,,,0.00,WUHU216HW,2013-02-20 11:27:00,
2013-02-20 03:28:00,28.4,26.5,29.88,NNW,338,0.0,0.0,92,0.00,,,0.00,WUHU216HW,2013-02-20 11:28:00,
2013-02-20 03:30:00,28.4,26.5,29.88,SSW,203,0.0,0.0,92,0.00,,,0.00,WUHU216HW,2013-02-20 11:30:00,
2013-02-20 03:31:00,28.6,26.7,29.88,SSW,203,0.0,0.0,92,0.00,,,0.00,WUHU216HW,2013-02-20 11:31:00,
2013-02-20 03:32:00,28.6,26.7,29.88,SSW,203,0.0,0.0,92,0.00,,,0.00,WUHU216HW,2013-02-20 11:32:00,
2013-02-20 03:33:00,28.6,26.7,29.88,SSW,203,0.0,0.0,92,0.00,,,0.00,WUHU216HW,2013-02-20 11:33:00,
2013-02-20 03:34:00,28.6,26.7,29.88,SSW,203,0.0,0.0,92,0.00,,,0.00,WUHU216HW,2013-02-20 11:34:00,
2013-02-20 03:36:00,28.8,26.8,29.88,SSE,158,0.0,0.0,92,0.00,,,0.00,WUHU216HW,2013-02-20 11:36:00,
2013-02-20 03:37:00,28.8,26.8,29.88,SSE,158,0.0,0.0,92,0.00,,,0.00,WUHU216HW,2013-02-20 11:37:00,
2013-02-20 03:38:00,28.8,26.8,29.88,SSE,158,0.0,0.0,92,0.00,,,0.00,WUHU216HW,2013-02-20 11:38:00,
2013-02-20 03:39:00,28.8,26.8,29.88,SSE,158,0.0,0.0,92,0.00,,,0.00,WUHU216HW,2013-02-20 11:39:00,
2013-02-20 03:41:00,29.0,27.0,29.88,SSE,158,0.9,0.9,92,0.00,,,0.00,WUHU216HW,2013-02-20 11:41:00,
2013-02-20 03:42:00,29.0,27.0,29.88,South,180,0.4,0.9,92,0.00,,,0.00,WUHU216HW,2013-02-20 11:42:00,
2013-02-20 03:43:00,28.8,26.8,29.88,South,180,0.4,0.9,92,0.00,,,0.00,WUHU216HW,2013-02-20 11:43:00,
2013-02-20 03:44:00,28.8,26.8,29.88,South,180,0.4,0.9,92,0.00,,,0.00,WUHU216HW,2013-02-20 11:44:00,
2013-02-20 03:46:00,28.8,26.8,29.88,South,180,0.7,0.9,92,0.00,,,0.00,WUHU216HW,2013-02-20 11:46:00,
2013-02-20 03:47:00,28.6,26.7,29.88,South,180,1.1,1.1,92,0.00,,,0.00,WUHU216HW,2013-02-20 11:47:00,
2013-02-20 03:48:00,28.6,26.7,29.88,South,180,0.9,1.1,92,0.00,,,0.00,WUHU216HW,2013-02-20 11:48:00,
2013-02-20 03:49:00,28.6,26.7,29.88,South,180,1.1,1.1,92,0.00,,,0.00,WUHU216HW,2013-02-20 11:49:00,
2013-02-20 03:50:00,28.6,26.7,29.88,South,180,0.9,1.1,92,0.00,,,0.00,WUHU216HW,2013-02-20 11:50:00,
2013-02-20 03:52:00,28.4,26.5,29.88,South,180,1.1,1.1,92,0.00,,,0.00,WUHU216HW,2013-02-20 11:52:00,
2013-02-20 03:53:00,28.4,26.5,29.88,South,180,1.1,1.1,92,0.00,,,0.00,WUHU216HW,2013-02-20 11:53:00,
2013-02-20 03:54:00,28.4,26.5,29.88,South,180,1.8,1.8,92,0.00,,,0.00,WUHU216HW,2013-02-20 11:54:00,
2013-02-20 03:55:00,28.4,26.5,29.88,South,180,1.3,1.8,92,0.00,,,0.00,WUHU216HW,2013-02-20 11:55:00,
2013-02-20 03:57:00,28.4,26.2,29.88,SSW,203,0.9,1.8,91,0.00,,,0.00,WUHU216HW,2013-02-20 11:57:00,
2013-02-20 03:58:00,28.3,26.0,29.88,SSW,203,0.4,1.8,91,0.00,,,0.00,WUHU216HW,2013-02-20 11:58:00,
2013-02-20 04:00:00,28.3,26.0,29.88,SSW,203,0.0,1.8,91,0.00,,,0.00,WUHU216HW,2013-02-20 12:00:00,
2013-02-20 04:01:00,28.3,26.3,29.88,SSW,203,0.0,1.8,92,0.00,,,0.00,WUHU216HW,2013-02-20 12:01:00,
2013-02-20 04:02:00,28.1,26.1,29.88,SSW,203,0.0,1.8,92,0.00,,,0.00,WUHU216HW,2013-02-20 12:02:00,
2013-02-20 04:03:00,28.1,26.1,29.88,SE,135,0.0,1.8,92,0.00,,,0.00,WUHU216HW,2013-02-20 12:03:00,
2013-02-20 04:05:00,28.1,26.1,29.88,East,90,0.2,1.3,92,0.00,,,0.00,WUHU216HW,2013-02-20 12:05:00,
2013-02-20 04:06:00,28.1,26.1,29.88,East,90,0.0,1.1,92,0.00,,,0.00,WUHU216HW,2013-02-20 12:06:00,
2013-02-20 04:07:00,28.1,26.1,29.88,SE,135,0.9,0.9,92,0.00,,,0.00,WUHU216HW,2013-02-20 12:07:00,
2013-02-20 04:08:00,28.3,26.3,29.88,SE,135,0.9,0.9,92,0.00,,,0.00,WUHU216HW,2013-02-20 12:08:00,
2013-02-20 04:10:00,28.1,26.1,29.88,SSE,158,0.0,0.9,92,0.00,,,0.00,WUHU216HW,2013-02-20 12:10:00,
2013-02-20 04:11:00,28.3,26.3,29.88,SSE,158,0.0,0.9,92,0.00,,,0.00,WUHU216HW,2013-02-20 12:11:00,
2013-02-20 04:12:00,28.3,26.3,29.88,SSE,158,0.0,0.9,92,0.00,,,0.00,WUHU216HW,2013-02-20 12:12:00,
2013-02-20 04:13:00,28.3,26.3,29.88,SSE,158,0.0,0.9,92,0.00,,,0.00,WUHU216HW,2013-02-20 12:13:00,
2013-02-20 04:14:00,28.3,26.3,29.88,East,90,0.9,0.9,92,0.00,,,0.00,WUHU216HW,2013-02-20 12:14:00,
2013-02-20 04:16:00,28.4,26.6,29.88,NNE,23,1.1,1.1,93,0.00,,,0.00,WUHU216HW,2013-02-20 12:16:00,
2013-02-20 04:17:00,28.4,26.6,29.88,NE,45,1.3,1.3,93,0.00,,,0.00,WUHU216HW,2013-02-20 12:17:00,
2013-02-20 04:18:00,28.4,26.6,29.88,NE,45,1.3,1.3,93,0.00,,,0.00,WUHU216HW,2013-02-20 12:18:00,
2013-02-20 04:19:00,28.4,26.6,29.88,NE,45,0.4,1.3,93,0.00,,,0.00,WUHU216HW,2013-02-20 12:19:00,
2013-02-20 04:21:00,28.6,26.8,29.88,East,90,0.0,1.3,93,0.00,,,0.00,WUHU216HW,2013-02-20 12:21:00,
2013-02-20 04:22:00,28.8,27.0,29.88,East,90,0.0,1.3,93,0.00,,,0.00,WUHU216HW,2013-02-20 12:22:00,
2013-02-20 04:23:00,28.8,27.0,29.88,ESE,113,0.4,1.3,93,0.00,,,0.00,WUHU216HW,2013-02-20 12:23:00,
2013-02-20 04:24:00,28.8,27.0,29.88,ESE,113,0.2,1.3,93,0.00,,,0.00,WUHU216HW,2013-02-20 12:24:00,
2013-02-20 04:26:00,29.0,27.2,29.88,ESE,113,0.0,1.3,93,0.00,,,0.00,WUHU216HW,2013-02-20 12:26:00,
2013-02-20 04:27:00,29.0,27.2,29.88,South,180,0.7,1.3,93,0.00,,,0.00,WUHU216HW,2013-02-20 12:27:00,
2013-02-20 04:28:00,29.0,27.2,29.88,South,180,0.4,0.7,93,0.00,,,0.00,WUHU216HW,2013-02-20 12:28:00,
2013-02-20 04:29:00,29.0,27.2,29.88,South,180,0.0,0.7,93,0.00,,,0.00,WUHU216HW,2013-02-20 12:29:00,
2013-02-20 04:30:00,29.0,27.2,29.88,South,180,0.0,0.7,93,0.00,,,0.00,WUHU216HW,2013-02-20 12:30:00,
2013-02-20 04:32:00,29.0,27.2,29.88,South,180,0.0,0.7,93,0.00,,,0.00,WUHU216HW,2013-02-20 12:32:00,
2013-02-20 04:33:00,29.0,27.2,29.88,South,180,0.0,0.7,93,0.00,,,0.00,WUHU216HW,2013-02-20 12:33:00,
2013-02-20 04:34:00,29.0,27.2,29.88,South,180,0.0,0.7,93,0.00,,,0.00,WUHU216HW,2013-02-20 12:34:00,
2013-02-20 04:35:00,29.0,27.2,29.88,South,180,0.0,0.7,93,0.00,,,0.00,WUHU216HW,2013-02-20 12:35:00,
2013-02-20 04:37:00,29.0,27.2,29.88,South,180,0.0,0.4,93,0.00,,,0.00,WUHU216HW,2013-02-20 12:37:00,
2013-02-20 04:38:00,29.0,27.2,29.88,South,180,0.0,0.0,93,0.00,,,0.00,WUHU216HW,2013-02-20 12:38:00,
2013-02-20 04:39:00,29.0,27.2,29.88,South,180,0.0,0.0,93,0.00,,,0.00,WUHU216HW,2013-02-20 12:39:00,
2013-02-20 04:40:00,29.0,27.2,29.88,South,180,0.0,0.0,93,0.00,,,0.00,WUHU216HW,2013-02-20 12:40:00,
2013-02-20 04:42:00,29.0,27.2,29.88,South,180,0.0,0.4,93,0.00,,,0.00,WUHU216HW,2013-02-20 12:42:00,
2013-02-20 04:43:00,29.2,27.2,29.88,South,180,0.0,0.4,92,0.00,,,0.00,WUHU216HW,2013-02-20 12:43:00,
2013-02-20 04:44:00,29.2,27.2,29.88,South,180,0.0,0.4,92,0.00,,,0.00,WUHU216HW,2013-02-20 12:44:00,
2013-02-20 04:45:00,29.2,27.2,29.88,South,180,0.0,0.4,92,0.00,,,0.00,WUHU216HW,2013-02-20 12:45:00,
2013-02-20 04:46:00,29.2,27.2,29.88,South,180,0.0,0.4,92,0.00,,,0.00,WUHU216HW,2013-02-20 12:46:00,
2013-02-20 04:48:00,29.2,27.2,29.88,South,180,0.0,0.4,92,0.00,,,0.00,WUHU216HW,2013-02-20 12:48:00,
2013-02-20 04:49:00,29.2,27.2,29.88,South,180,0.0,0.4,92,0.00,,,0.00,WUHU216HW,2013-02-20 12:49:00,
2013-02-20 04:50:00,29.2,27.2,29.88,South,180,0.0,0.4,92,0.00,,,0.00,WUHU216HW,2013-02-20 12:50:00,
2013-02-20 04:51:00,29.2,27.2,29.88,South,180,0.0,0.0,92,0.00,,,0.00,WUHU216HW,2013-02-20 12:51:00,
2013-02-20 04:53:00,29.2,27.2,29.88,South,180,0.0,0.0,92,0.00,,,0.00,WUHU216HW,2013-02-20 12:53:00,
2013-02-20 04:54:00,29.2,27.2,29.88,South,180,0.0,0.0,92,0.00,,,0.00,WUHU216HW,2013-02-20 12:54:00,
2013-02-20 04:55:00,29.3,27.4,29.88,South,180,0.0,0.0,92,0.00,,,0.00,WUHU216HW,2013-02-20 12:55:00,
2013-02-20 04:56:00,29.3,27.4,29.88,South,180,0.0,0.0,92,0.00,,,0.00,WUHU216HW,2013-02-20 12:56:00,
2013-02-20 04:58:00,29.3,27.5,29.88,East,90,0.0,0.0,93,0.00,,,0.00,WUHU216HW,2013-02-20 12:58:00,
2013-02-20 04:59:00,29.3,27.5,29.88,East,90,0.0,0.0,93,0.00,,,0.00,WUHU216HW,2013-02-20 12:59:00,
2013-02-20 05:01:00,29.3,27.4,29.88,NW,315,0.4,0.4,92,0.00,,,0.00,WUHU216HW,2013-02-20 13:01:00,
2013-02-20 05:02:00,29.3,27.4,29.88,NW,315,1.1,1.1,92,0.00,,,0.00,WUHU216HW,2013-02-20 13:02:00,
2013-02-20 05:03:00,29.5,27.6,29.88,NW,315,0.2,1.1,92,0.00,,,0.00,WUHU216HW,2013-02-20 13:03:00,
2013-02-20 05:04:00,29.5,27.6,29.88,NW,315,0.2,1.1,92,0.00,,,0.00,WUHU216HW,2013-02-20 13:04:00,
2013-02-20 05:06:00,29.5,27.6,29.88,North,0,0.0,1.1,92,0.00,,,0.00,WUHU216HW,2013-02-20 13:06:00,
2013-02-20 05:07:00,29.5,27.6,29.88,NE,45,0.2,1.1,92,0.00,,,0.00,WUHU216HW,2013-02-20 13:07:00,
2013-02-20 05:08:00,29.5,27.6,29.88,NE,45,0.0,1.1,92,0.00,,,0.00,WUHU216HW,2013-02-20 13:08:00,
2013-02-20 05:09:00,29.5,27.6,29.88,NE,45,0.0,1.1,92,0.00,,,0.00,WUHU216HW,2013-02-20 13:09:00,
2013-02-20 05:11:00,29.5,27.6,29.88,WNW,293,0.0,1.1,92,0.00,,,0.00,WUHU216HW,2013-02-20 13:11:00,
2013-02-20 05:12:00,29.5,27.6,29.88,West,270,0.9,0.9,92,0.00,,,0.00,WUHU216HW,2013-02-20 13:12:00,
2013-02-20 05:13:00,29.5,27.6,29.88,West,270,0.4,0.9,92,0.00,,,0.00,WUHU216HW,2013-02-20 13:13:00,
2013-02-20 05:14:00,29.5,27.6,29.88,West,270,0.4,0.9,92,0.00,,,0.00,WUHU216HW,2013-02-20 13:14:00,
2013-02-20 05:16:00,29.7,27.7,29.88,West,270,0.0,0.9,92,0.00,,,0.00,WUHU216HW,2013-02-20 13:16:00,
2013-02-20 05:17:00,29.7,27.7,29.88,West,270,0.0,0.9,92,0.00,,,0.00,WUHU216HW,2013-02-20 13:17:00,
2013-02-20 05:18:00,29.7,27.7,29.88,NNE,23,0.0,0.9,92,0.00,,,0.00,WUHU216HW,2013-02-20 13:18:00,
2013-02-20 05:19:00,29.7,27.9,29.89,NNE,23,0.0,0.9,93,0.00,,,0.00,WUHU216HW,2013-02-20 13:19:00,
2013-02-20 05:20:00,29.7,27.9,29.89,NNE,23,0.7,0.9,93,0.00,,,0.00,WUHU216HW,2013-02-20 13:20:00,
2013-02-20 05:22:00,29.9,28.1,29.89,NNE,23,0.4,0.7,93,0.00,,,0.00,WUHU216HW,2013-02-20 13:22:00,
2013-02-20 05:23:00,29.9,28.1,29.89,NNE,23,0.7,0.7,93,0.00,,,0.00,WUHU216HW,2013-02-20 13:23:00,
2013-02-20 05:24:00,29.9,28.1,29.89,NNE,23,0.4,0.7,93,0.00,,,0.00,WUHU216HW,2013-02-20 13:24:00,
2013-02-20 05:25:00,29.9,28.1,29.89,NE,45,0.2,0.7,93,0.00,,,0.00,WUHU216HW,2013-02-20 13:25:00,
2013-02-20 05:27:00,29.9,28.1,29.89,NE,45,0.0,0.7,93,0.00,,,0.00,WUHU216HW,2013-02-20 13:27:00,
2013-02-20 05:28:00,29.9,28.1,29.89,NE,45,0.0,0.7,93,0.00,,,0.00,WUHU216HW,2013-02-20 13:28:00,
2013-02-20 05:29:00,29.9,28.1,29.89,NE,45,0.0,0.7,93,0.00,,,0.00,WUHU216HW,2013-02-20 13:29:00,
2013-02-20 05:30:00,29.9,28.1,29.89,NE,45,0.0,0.7,93,0.00,,,0.00,WUHU216HW,2013-02-20 13:30:00,
2013-02-20 05:32:00,29.9,28.1,29.89,NE,45,0.0,0.7,93,0.00,,,0.00,WUHU216HW,2013-02-20 13:32:00,
2013-02-20 05:33:00,29.9,28.1,29.89,West,270,0.0,0.4,93,0.00,,,0.00,WUHU216HW,2013-02-20 13:33:00,
2013-02-20 05:34:00,29.9,27.9,29.89,West,270,0.0,0.2,92,0.00,,,0.00,WUHU216HW,2013-02-20 13:34:00,
2013-02-20 05:35:00,30.1,28.1,29.89,West,270,0.0,0.2,92,0.00,,,0.00,WUHU216HW,2013-02-20 13:35:00,
2013-02-20 05:36:00,30.1,28.3,29.89,West,270,0.0,0.0,93,0.00,,,0.00,WUHU216HW,2013-02-20 13:36:00,
2013-02-20 05:38:00,30.1,28.3,29.89,West,270,0.0,0.0,93,0.00,,,0.00,WUHU216HW,2013-02-20 13:38:00,
2013-02-20 05:39:00,30.1,28.3,29.89,West,270,0.0,0.0,93,0.00,,,0.00,WUHU216HW,2013-02-20 13:39:00,
2013-02-20 05:40:00,30.1,28.3,29.89,West,270,0.0,0.0,93,0.00,,,0.00,WUHU216HW,2013-02-20 13:40:00,
2013-02-20 05:46:00,30.1,28.1,29.89,SW,225,1.1,1.1,92,0.00,,,0.00,WUHU216HW,2013-02-20 13:46:00,
2013-02-20 05:51:00,30.2,28.3,29.89,SSW,203,0.0,1.1,92,0.00,,,0.00,WUHU216HW,2013-02-20 13:51:00,
2013-02-20 05:56:00,30.2,28.3,29.88,South,180,0.4,1.1,92,0.00,,,0.00,WUHU216HW,2013-02-20 13:56:00,
2013-02-20 06:01:00,30.4,28.5,29.88,South,180,0.4,1.1,92,0.00,,,0.00,WUHU216HW,2013-02-20 14:01:00,
2013-02-20 06:06:00,30.6,28.8,29.88,ESE,113,0.0,1.1,93,0.00,,,0.00,WUHU216HW,2013-02-20 14:06:00,
2013-02-20 06:11:00,30.6,28.6,29.88,SE,135,0.4,1.1,92,0.00,,,0.00,WUHU216HW,2013-02-20 14:11:00,
2013-02-20 06:16:00,30.8,29.0,29.88,ESE,113,1.1,1.1,93,0.00,,,0.00,WUHU216HW,2013-02-20 14:16:00,
2013-02-20 06:21:00,31.0,29.2,29.88,SSW,203,0.0,1.1,93,0.00,,,0.00,WUHU216HW,2013-02-20 14:21:00,
2013-02-20 06:26:00,31.0,29.2,29.88,NNE,23,1.6,1.6,93,0.00,,,0.00,WUHU216HW,2013-02-20 14:26:00,
2013-02-20 06:31:00,31.0,29.2,29.88,NNW,338,1.1,1.6,93,0.00,,,0.00,WUHU216HW,2013-02-20 14:31:00,
2013-02-20 06:36:00,31.0,29.2,29.88,ENE,68,0.7,1.1,93,0.00,,,0.00,WUHU216HW,2013-02-20 14:36:00,
2013-02-20 06:41:00,31.0,29.2,29.88,East,90,0.0,0.7,93,0.00,,,0.00,WUHU216HW,2013-02-20 14:41:00,
2013-02-20 06:46:00,31.0,29.2,29.88,East,90,0.0,0.4,93,0.00,,,0.00,WUHU216HW,2013-02-20 14:46:00,
2013-02-20 06:51:00,31.0,29.2,29.88,West,270,0.0,0.2,93,0.00,,,0.00,WUHU216HW,2013-02-20 14:51:00,
2013-02-20 06:56:00,31.0,29.2,29.88,West,270,0.0,0.0,93,0.00,,,0.00,WUHU216HW,2013-02-20 14:56:00,
2013-02-20 07:01:00,31.1,29.3,29.88,West,270,0.0,0.0,93,0.00,,,0.00,WUHU216HW,2013-02-20 15:01:00,
2013-02-20 07:06:00,31.1,29.3,29.88,NW,315,0.0,0.0,93,0.00,,,0.00,WUHU216HW,2013-02-20 15:06:00,
2013-02-20 07:11:00,31.0,29.2,29.88,ENE,68,0.0,0.0,93,0.00,,,0.00,WUHU216HW,2013-02-20 15:11:00,
2013-02-20 07:16:00,31.3,29.5,29.88,ESE,113,0.4,1.3,93,0.00,,,0.00,WUHU216HW,2013-02-20 15:16:00,
2013-02-20 07:21:00,31.3,29.5,29.88,WSW,248,1.3,1.3,93,0.00,,,0.00,WUHU216HW,2013-02-20 15:21:00,
2013-02-20 07:26:00,31.3,29.5,29.88,ESE,113,0.4,1.3,93,0.01,,,0.02,WUHU216HW,2013-02-20 15:26:00,
2013-02-20 07:31:00,31.3,29.5,29.88,WSW,248,0.0,1.1,93,0.01,,,0.02,WUHU216HW,2013-02-20 15:31:00,
2013-02-20 07:36:00,31.5,29.7,29.88,SSW,203,0.4,0.4,93,0.01,,,0.02,WUHU216HW,2013-02-20 15:36:00,
2013-02-20 07:41:00,31.7,29.9,29.88,SW,225,0.0,0.4,93,0.01,,,0.02,WUHU216HW,2013-02-20 15:41:00,
2013-02-20 07:46:00,31.7,29.9,29.88,NNE,23,0.0,0.4,93,0.01,,,0.02,WUHU216HW,2013-02-20 15:46:00,
2013-02-20 07:51:00,31.9,30.1,29.88,NNE,23,0.0,0.4,93,0.01,,,0.02,WUHU216HW,2013-02-20 15:51:00,
2013-02-20 07:56:00,31.9,30.1,29.88,NNE,23,0.0,0.0,93,0.01,,,0.02,WUHU216HW,2013-02-20 15:56:00,
2013-02-20 08:01:00,32.0,30.2,29.88,NNE,23,0.0,0.0,93,0.01,,,0.02,WUHU216HW,2013-02-20 16:01:00,
2013-02-20 08:06:00,32.2,30.4,29.88,NNE,23,0.0,0.0,93,0.01,,,0.02,WUHU216HW,2013-02-20 16:06:00,
2013-02-20 08:11:00,32.2,30.4,29.88,NNE,23,0.0,0.0,93,0.01,,,0.02,WUHU216HW,2013-02-20 16:11:00,
2013-02-20 08:16:00,32.4,30.6,29.88,North,0,0.0,0.0,93,0.01,,,0.02,WUHU216HW,2013-02-20 16:16:00,
2013-02-20 08:21:00,32.4,30.6,29.87,North,0,0.0,0.0,93,0.01,,,0.02,WUHU216HW,2013-02-20 16:21:00,
2013-02-20 08:26:00,32.6,30.8,29.88,SSE,158,0.0,0.0,93,0.00,,,0.02,WUHU216HW,2013-02-20 16:26:00,
2013-02-20 08:31:00,32.8,31.0,29.88,SSE,158,0.0,0.0,93,0.00,,,0.02,WUHU216HW,2013-02-20 16:31:00,
2013-02-20 08:36:00,32.9,31.2,29.87,East,90,0.7,1.1,93,0.00,,,0.02,WUHU216HW,2013-02-20 16:36:00,
2013-02-20 08:41:00,33.3,31.4,29.87,WSW,248,0.7,1.1,93,0.00,,,0.02,WUHU216HW,2013-02-20 16:41:00,
2013-02-20 08:46:00,33.5,31.3,29.87,West,270,0.2,1.8,92,0.00,,,0.02,WUHU216HW,2013-02-20 16:46:00,
2013-02-20 08:51:00,33.5,31.6,29.88,NNW,338,0.0,1.8,93,0.00,,,0.02,WUHU216HW,2013-02-20 16:51:00,
2013-02-20 08:56:00,33.7,32.0,29.88,East,90,0.0,1.3,94,0.00,,,0.02,WUHU216HW,2013-02-20 16:56:00,
2013-02-20 09:01:00,33.8,32.0,29.87,West,270,0.9,1.3,93,0.00,,,0.02,WUHU216HW,2013-02-20 17:01:00,
2013-02-20 09:06:00,34.0,32.1,29.88,West,270,0.0,0.9,93,0.00,,,0.02,WUHU216HW,2013-02-20 17:06:00,
2013-02-20 09:11:00,34.2,32.3,29.88,NW,315,0.0,0.9,93,0.00,,,0.02,WUHU216HW,2013-02-20 17:11:00,
2013-02-20 09:16:00,34.4,32.8,29.88,North,0,0.2,0.2,94,0.00,,,0.02,WUHU216HW,2013-02-20 17:16:00,
2013-02-20 09:21:00,34.6,32.7,29.88,North,0,0.0,0.2,93,0.00,,,0.02,WUHU216HW,2013-02-20 17:21:00,
2013-02-20 09:26:00,34.7,32.9,29.88,ENE,68,0.2,0.9,93,0.00,,,0.02,WUHU216HW,2013-02-20 17:26:00,
2013-02-20 09:31:00,34.9,33.0,29.89,NNE,23,0.0,0.9,93,0.00,,,0.02,WUHU216HW,2013-02-20 17:31:00,
2013-02-20 09:36:00,35.1,33.2,29.88,SSW,203,0.0,0.4,93,0.00,,,0.02,WUHU216HW,2013-02-20 17:36:00,
2013-02-20 09:41:00,35.5,33.6,29.88,South,180,0.0,0.2,93,0.00,,,0.02,WUHU216HW,2013-02-20 17:41:00,
2013-02-20 09:46:00,35.8,33.9,29.88,WSW,248,0.9,0.9,93,0.00,,,0.02,WUHU216HW,2013-02-20 17:46:00,
2013-02-20 09:51:00,36.0,34.1,29.88,North,0,0.4,0.9,93,0.00,,,0.02,WUHU216HW,2013-02-20 17:51:00,
2013-02-20 09:56:00,36.0,34.1,29.88,North,0,0.0,0.9,93,0.00,,,0.02,WUHU216HW,2013-02-20 17:56:00,
2013-02-20 10:01:00,36.2,34.3,29.88,SW,225,0.0,0.2,93,0.00,,,0.02,WUHU216HW,2013-02-20 18:01:00,
2013-02-20 10:06:00,36.4,34.5,29.88,NNW,338,0.0,0.7,93,0.00,,,0.02,WUHU216HW,2013-02-20 18:06:00,
2013-02-20 10:11:00,36.7,34.6,29.88,NNW,338,0.0,0.7,92,0.00,,,0.02,WUHU216HW,2013-02-20 18:11:00,
2013-02-20 10:16:00,37.1,34.9,29.88,North,0,0.0,0.0,92,0.00,,,0.02,WUHU216HW,2013-02-20 18:16:00,
2013-02-20 10:21:00,37.4,35.3,29.88,WNW,293,0.0,0.0,92,0.00,,,0.02,WUHU216HW,2013-02-20 18:21:00,
2013-02-20 10:26:00,37.8,35.6,29.88,SE,135,0.0,0.0,92,0.00,,,0.02,WUHU216HW,2013-02-20 18:26:00,
2013-02-20 10:31:00,38.2,36.0,29.87,SW,225,0.4,1.3,92,0.00,,,0.02,WUHU216HW,2013-02-20 18:31:00,
2013-02-20 10:36:00,38.5,36.4,29.88,WSW,248,1.1,1.3,92,0.00,,,0.02,WUHU216HW,2013-02-20 18:36:00,
2013-02-20 10:41:00,38.9,36.7,29.88,West,270,0.2,1.1,92,0.00,,,0.02,WUHU216HW,2013-02-20 18:41:00,
2013-02-20 10:46:00,39.6,37.4,29.88,South,180,0.7,0.7,92,0.00,,,0.02,WUHU216HW,2013-02-20 18:46:00,
2013-02-20 10:51:00,40.0,37.8,29.88,SW,225,0.0,0.7,92,0.00,,,0.02,WUHU216HW,2013-02-20 18:51:00,
2013-02-20 10:56:00,40.5,38.1,29.88,South,180,0.9,1.3,91,0.00,,,0.02,WUHU216HW,2013-02-20 18:56:00,
2013-02-20 11:01:00,41.2,38.5,29.88,SW,225,0.0,1.3,90,0.00,,,0.02,WUHU216HW,2013-02-20 19:01:00,
2013-02-20 11:06:00,41.6,38.6,29.88,SW,225,1.1,1.1,89,0.00,,,0.02,WUHU216HW,2013-02-20 19:06:00,
2013-02-20 11:11:00,41.6,38.3,29.88,South,180,0.7,1.1,88,0.00,,,0.02,WUHU216HW,2013-02-20 19:11:00,
2013-02-20 11:16:00,41.8,38.2,29.89,SE,135,0.9,0.9,87,0.00,,,0.02,WUHU216HW,2013-02-20 19:16:00,
2013-02-20 11:21:00,41.8,38.2,29.89,SSE,158,0.4,1.3,87,0.00,,,0.02,WUHU216HW,2013-02-20 19:21:00,
2013-02-20 11:26:00,41.8,37.5,29.89,SSE,158,0.9,1.3,85,0.00,,,0.02,WUHU216HW,2013-02-20 19:26:00,
2013-02-20 11:31:00,41.8,37.3,29.88,SSW,203,0.2,0.9,84,0.00,,,0.02,WUHU216HW,2013-02-20 19:31:00,
2013-02-20 11:36:00,41.8,36.9,29.88,SSW,203,0.0,1.1,83,0.00,,,0.02,WUHU216HW,2013-02-20 19:36:00,
2013-02-20 11:41:00,41.8,37.3,29.88,South,180,1.3,1.3,84,0.00,,,0.02,WUHU216HW,2013-02-20 19:41:00,
2013-02-20 11:46:00,42.1,37.9,29.88,SW,225,2.7,2.7,85,0.00,,,0.02,WUHU216HW,2013-02-20 19:46:00,
2013-02-20 11:51:00,42.1,37.3,29.88,SSW,203,0.9,2.7,83,0.00,,,0.02,WUHU216HW,2013-02-20 19:51:00,
2013-02-20 11:56:00,42.3,36.8,29.88,SW,225,2.0,2.5,81,0.00,,,0.02,WUHU216HW,2013-02-20 19:56:00,
2013-02-20 12:01:00,42.3,36.2,29.89,ESE,113,1.1,2.7,79,0.00,,,0.02,WUHU216HW,2013-02-20 20:01:00,
2013-02-20 12:06:00,42.1,36.6,29.88,ESE,113,1.1,2.7,81,0.00,,,0.02,WUHU216HW,2013-02-20 20:06:00,
2013-02-20 12:11:00,42.1,36.6,29.88,South,180,0.0,2.0,81,0.00,,,0.02,WUHU216HW,2013-02-20 20:11:00,
2013-02-20 12:16:00,42.1,36.0,29.88,SW,225,0.4,2.5,79,0.00,,,0.02,WUHU216HW,2013-02-20 20:16:00,
2013-02-20 12:21:00,42.5,37.4,29.88,South,180,0.4,2.5,82,0.00,,,0.02,WUHU216HW,2013-02-20 20:21:00,
2013-02-20 12:26:00,43.4,37.9,29.88,South,180,0.0,0.9,81,0.00,,,0.02,WUHU216HW,2013-02-20 20:26:00,
2013-02-20 12:31:00,44.1,38.3,29.87,SW,225,1.3,1.6,80,0.00,,,0.02,WUHU216HW,2013-02-20 20:31:00,
2013-02-20 12:36:00,44.3,37.5,29.87,SSE,158,5.1,5.1,77,0.00,,,0.02,WUHU216HW,2013-02-20 20:36:00,
2013-02-20 12:41:00,44.1,37.4,29.87,South,180,5.4,5.4,77,0.00,,,0.02,WUHU216HW,2013-02-20 20:41:00,
2013-02-20 12:46:00,44.1,37.0,29.87,SSW,203,4.0,5.4,76,0.00,,,0.02,WUHU216HW,2013-02-20 20:46:00,
2013-02-20 12:51:00,44.3,37.5,29.87,SE,135,3.4,5.4,77,0.00,,,0.02,WUHU216HW,2013-02-20 20:51:00,
2013-02-20 12:56:00,44.3,37.5,29.86,SW,225,5.8,5.8,77,0.00,,,0.02,WUHU216HW,2013-02-20 20:56:00,
2013-02-20 13:01:00,44.1,37.7,29.86,SW,225,5.4,5.8,78,0.00,,,0.02,WUHU216HW,2013-02-20 21:01:00,
2013-02-20 13:06:00,44.1,37.0,29.86,SSW,203,2.5,5.4,76,0.00,,,0.02,WUHU216HW,2013-02-20 21:06:00,
2013-02-20 13:11:00,43.9,37.2,29.86,SSE,158,1.3,6.3,77,0.00,,,0.02,WUHU216HW,2013-02-20 21:11:00,
2013-02-20 13:16:00,43.7,37.0,29.86,SSW,203,1.3,6.3,77,0.00,,,0.02,WUHU216HW,2013-02-20 21:16:00,
2013-02-20 13:21:00,43.9,37.2,29.86,South,180,0.9,2.9,77,0.00,,,0.02,WUHU216HW,2013-02-20 21:21:00,
2013-02-20 13:26:00,44.1,37.7,29.86,SSE,158,1.3,2.7,78,0.00,,,0.02,WUHU216HW,2013-02-20 21:26:00,
2013-02-20 13:31:00,44.1,37.4,29.86,SSE,158,2.7,2.7,77,0.00,,,0.02,WUHU216HW,2013-02-20 21:31:00,
2013-02-20 13:36:00,44.3,37.5,29.86,SE,135,1.1,4.0,77,0.00,,,0.02,WUHU216HW,2013-02-20 21:36:00,
2013-02-20 13:41:00,44.3,37.5,29.85,SE,135,2.0,4.0,77,0.00,,,0.02,WUHU216HW,2013-02-20 21:41:00,
2013-02-20 13:46:00,44.8,38.1,29.85,South,180,0.7,2.2,77,0.00,,,0.02,WUHU216HW,2013-02-20 21:46:00,
2013-02-20 13:51:00,45.0,38.3,29.85,SSW,203,0.2,2.2,77,0.00,,,0.02,WUHU216HW,2013-02-20 21:51:00,
2013-02-20 13:56:00,45.2,38.4,29.84,South,180,1.1,1.6,77,0.00,,,0.02,WUHU216HW,2013-02-20 21:56:00,
2013-02-20 14:01:00,45.2,38.4,29.84,SSE,158,1.1,1.6,77,0.00,,,0.02,WUHU216HW,2013-02-20 22:01:00,
2013-02-20 14:06:00,45.0,37.9,29.84,SSW,203,1.3,1.8,76,0.00,,,0.02,WUHU216HW,2013-02-20 22:06:00,
2013-02-20 14:11:00,44.5,37.4,29.84,SSE,158,0.7,1.8,76,0.00,,,0.02,WUHU216HW,2013-02-20 22:11:00,
2013-02-20 14:16:00,44.3,38.2,29.84,East,90,1.1,1.8,79,0.00,,,0.02,WUHU216HW,2013-02-20 22:16:00,
2013-02-20 14:21:00,44.1,38.3,29.84,North,0,0.4,1.8,80,0.00,,,0.02,WUHU216HW,2013-02-20 22:21:00,
2013-02-20 14:26:00,43.9,38.4,29.83,ESE,113,0.7,1.1,81,0.00,,,0.02,WUHU216HW,2013-02-20 22:26:00,
2013-02-20 14:31:00,44.1,38.6,29.83,East,90,0.0,1.1,81,0.00,,,0.02,WUHU216HW,2013-02-20 22:31:00,
2013-02-20 14:36:00,44.1,38.3,29.83,East,90,0.0,2.0,80,0.00,,,0.02,WUHU216HW,2013-02-20 22:36:00,
2013-02-20 14:41:00,44.3,38.8,29.83,South,180,1.1,2.0,81,0.00,,,0.02,WUHU216HW,2013-02-20 22:41:00,
2013-02-20 14:46:00,44.3,38.2,29.83,South,180,0.0,1.1,79,0.00,,,0.02,WUHU216HW,2013-02-20 22:46:00,
2013-02-20 14:51:00,44.3,38.2,29.83,NNE,23,0.4,2.5,79,0.00,,,0.02,WUHU216HW,2013-02-20 22:51:00,
2013-02-20 14:56:00,44.3,37.8,29.83,SSW,203,1.3,4.0,78,0.00,,,0.02,WUHU216HW,2013-02-20 22:56:00,
2013-02-20 15:01:00,44.1,37.7,29.83,SSE,158,0.2,4.0,78,0.00,,,0.02,WUHU216HW,2013-02-20 23:01:00,
2013-02-20 15:06:00,44.1,37.7,29.83,WSW,248,0.9,1.8,78,0.00,,,0.02,WUHU216HW,2013-02-20 23:06:00,
2013-02-20 15:11:00,44.1,37.7,29.83,SE,135,0.0,1.1,78,0.00,,,0.02,WUHU216HW,2013-02-20 23:11:00,
2013-02-20 15:16:00,44.3,37.8,29.83,SW,225,0.0,1.1,78,0.00,,,0.02,WUHU216HW,2013-02-20 23:16:00,
2013-02-20 15:21:00,44.3,37.8,29.83,ENE,68,0.4,1.3,78,0.00,,,0.02,WUHU216HW,2013-02-20 23:21:00,
2013-02-20 15:26:00,44.3,37.8,29.83,SE,135,0.0,1.6,78,0.00,,,0.02,WUHU216HW,2013-02-20 23:26:00,
2013-02-20 15:31:00,44.1,38.0,29.83,NNW,338,1.1,1.6,79,0.00,,,0.02,WUHU216HW,2013-02-20 23:31:00,
2013-02-20 15:36:00,43.9,37.8,29.83,NW,315,0.4,1.1,79,0.00,,,0.02,WUHU216HW,2013-02-20 23:36:00,
2013-02-20 15:42:00,43.9,38.2,29.83,WSW,248,0.7,1.8,80,0.00,,,0.02,WUHU216HW,2013-02-20 23:42:00,
2013-02-20 15:47:00,43.7,38.0,29.83,West,270,0.0,1.8,80,0.00,,,0.02,WUHU216HW,2013-02-20 23:47:00,
2013-02-20 15:52:00,43.6,38.1,29.83,WSW,248,1.8,1.8,81,0.00,,,0.02,WUHU216HW,2013-02-20 23:52:00,
2013-02-20 15:57:00,43.4,37.9,29.83,WSW,248,0.4,1.8,81,0.00,,,0.02,WUHU216HW,2013-02-20 23:57:00,
2013-02-20 16:02:00,43.2,37.7,29.84,SW,225,0.0,1.1,81,0.00,,,0.02,WUHU216HW,2013-02-21 00:02:00,
2013-02-20 16:07:00,43.2,38.3,29.84,SW,225,0.0,0.4,83,0.00,,,0.02,WUHU216HW,2013-02-21 00:07:00,
2013-02-20 16:12:00,42.8,38.6,29.84,ESE,113,0.0,0.0,85,0.01,,,0.02,WUHU216HW,2013-02-21 00:12:00,
2013-02-20 16:17:00,42.5,38.3,29.84,ESE,113,1.1,1.1,85,0.01,,,0.02,WUHU216HW,2013-02-21 00:17:00,
2013-02-20 16:22:00,42.1,37.9,29.84,SE,135,0.0,1.1,85,0.01,,,0.02,WUHU216HW,2013-02-21 00:22:00,
2013-02-20 16:27:00,42.1,38.5,29.84,North,0,0.0,0.2,87,0.01,,,0.02,WUHU216HW,2013-02-21 00:27:00,
2013-02-20 16:31:00,41.9,38.4,29.84,ENE,68,0.0,0.2,87,0.01,,,0.02,WUHU216HW,2013-02-21 00:31:00,
2013-02-20 16:36:00,41.9,38.4,29.84,ENE,68,0.4,0.4,87,0.01,,,0.02,WUHU216HW,2013-02-21 00:36:00,
2013-02-20 16:41:00,41.9,39.0,29.84,ENE,68,0.9,1.3,89,0.02,,,0.04,WUHU216HW,2013-02-21 00:41:00,
2013-02-20 16:46:00,41.8,39.1,29.84,East,90,1.8,1.8,90,0.02,,,0.04,WUHU216HW,2013-02-21 00:46:00,
2013-02-20 16:52:00,41.6,38.6,29.84,East,90,0.2,1.8,89,0.02,,,0.04,WUHU216HW,2013-02-21 00:52:00,
2013-02-20 16:57:00,41.4,38.7,29.84,East,90,0.4,0.7,90,0.02,,,0.04,WUHU216HW,2013-02-21 00:57:00,
2013-02-20 17:02:00,41.4,38.4,29.84,SSW,203,0.4,1.6,89,0.02,,,0.04,WUHU216HW,2013-02-21 01:02:00,
2013-02-20 17:07:00,41.2,38.5,29.84,ENE,68,0.2,1.6,90,0.02,,,0.04,WUHU216HW,2013-02-21 01:07:00,
2013-02-20 17:11:00,41.0,38.1,29.84,ENE,68,0.0,0.7,89,0.01,,,0.04,WUHU216HW,2013-02-21 01:11:00,
2013-02-20 17:16:00,41.0,38.3,29.84,ENE,68,0.4,0.9,90,0.01,,,0.04,WUHU216HW,2013-02-21 01:16:00,
2013-02-20 17:21:00,40.9,38.4,29.85,ENE,68,0.0,0.9,91,0.01,,,0.04,WUHU216HW,2013-02-21 01:21:00,
2013-02-20 17:26:00,40.7,38.0,29.85,ENE,68,0.0,0.4,90,0.01,,,0.04,WUHU216HW,2013-02-21 01:26:00,
2013-02-20 17:31:00,40.5,38.1,29.85,ENE,68,0.7,1.1,91,0.01,,,0.04,WUHU216HW,2013-02-21 01:31:00,
2013-02-20 17:36:00,40.3,38.2,29.84,NE,45,1.1,1.1,92,0.00,,,0.04,WUHU216HW,2013-02-21 01:36:00,
2013-02-20 17:41:00,40.3,38.2,29.84,NE,45,0.0,1.1,92,0.00,,,0.04,WUHU216HW,2013-02-21 01:41:00,
2013-02-20 17:46:00,40.1,37.7,29.85,NE,45,0.0,0.4,91,0.01,,,0.05,WUHU216HW,2013-02-21 01:46:00,
2013-02-20 17:51:00,40.0,37.5,29.85,ENE,68,0.0,0.0,91,0.01,,,0.05,WUHU216HW,2013-02-21 01:51:00,
2013-02-20 17:56:00,40.0,37.3,29.85,ENE,68,0.0,0.0,90,0.01,,,0.05,WUHU216HW,2013-02-21 01:56:00,
2013-02-20 18:01:00,40.0,37.5,29.85,ENE,68,0.0,0.0,91,0.01,,,0.05,WUHU216HW,2013-02-21 02:01:00,
2013-02-20 18:06:00,39.8,37.4,29.85,SE,135,0.0,0.0,91,0.01,,,0.05,WUHU216HW,2013-02-21 02:06:00,
2013-02-20 18:11:00,39.6,37.2,29.85,SE,135,0.0,0.0,91,0.01,,,0.05,WUHU216HW,2013-02-21 02:11:00,
2013-02-20 18:16:00,39.6,37.2,29.85,SE,135,0.0,0.0,91,0.01,,,0.05,WUHU216HW,2013-02-21 02:16:00,
2013-02-20 18:21:00,39.4,37.0,29.85,SE,135,0.0,0.0,91,0.01,,,0.05,WUHU216HW,2013-02-21 02:21:00,
2013-02-20 18:26:00,39.4,37.0,29.85,SE,135,0.0,0.0,91,0.01,,,0.05,WUHU216HW,2013-02-21 02:26:00,
2013-02-20 18:31:00,39.2,36.8,29.85,ESE,113,0.0,0.0,91,0.01,,,0.05,WUHU216HW,2013-02-21 02:31:00,
2013-02-20 18:36:00,39.2,36.8,29.86,SE,135,0.0,0.4,91,0.02,,,0.05,WUHU216HW,2013-02-21 02:36:00,
2013-02-20 18:41:00,39.2,37.1,29.85,NE,45,0.0,0.4,92,0.01,,,0.05,WUHU216HW,2013-02-21 02:41:00,
2013-02-20 18:46:00,39.1,36.9,29.85,NE,45,0.0,0.0,92,0.01,,,0.05,WUHU216HW,2013-02-21 02:46:00,
2013-02-20 18:51:00,39.1,36.9,29.86,NE,45,0.0,0.0,92,0.01,,,0.05,WUHU216HW,2013-02-21 02:51:00,
2013-02-20 18:56:00,38.9,36.5,29.85,East,90,0.0,0.0,91,0.01,,,0.05,WUHU216HW,2013-02-21 02:56:00,
2013-02-20 19:01:00,38.7,36.3,29.85,East,90,0.0,0.0,91,0.01,,,0.05,WUHU216HW,2013-02-21 03:01:00,
2013-02-20 19:06:00,38.5,36.1,29.85,East,90,0.0,0.0,91,0.01,,,0.05,WUHU216HW,2013-02-21 03:06:00,
2013-02-20 19:11:00,38.2,35.7,29.85,East,90,0.0,0.0,91,0.01,,,0.05,WUHU216HW,2013-02-21 03:11:00,
2013-02-20 19:16:00,37.8,35.4,29.85,East,90,0.4,0.4,91,0.01,,,0.05,WUHU216HW,2013-02-21 03:16:00,
2013-02-20 19:21:00,37.3,34.8,29.85,East,90,0.0,0.4,91,0.01,,,0.05,WUHU216HW,2013-02-21 03:21:00,
2013-02-20 19:26:00,37.1,34.9,29.85,East,90,0.0,0.4,92,0.01,,,0.05,WUHU216HW,2013-02-21 03:26:00,
2013-02-20 19:31:00,37.1,34.9,29.85,East,90,0.0,0.4,92,0.01,,,0.05,WUHU216HW,2013-02-21 03:31:00,
2013-02-20 19:36:00,36.7,34.6,29.85,East,90,0.2,0.4,92,0.00,,,0.05,WUHU216HW,2013-02-21 03:36:00,
2013-02-20 19:41:00,36.4,34.2,29.84,East,90,0.0,0.2,92,0.00,,,0.05,WUHU216HW,2013-02-21 03:41:00,
2013-02-20 19:46:00,36.0,33.6,29.85,East,90,0.0,0.2,91,0.00,,,0.05,WUHU216HW,2013-02-21 03:46:00,
2013-02-20 19:51:00,35.8,33.4,29.85,East,90,0.0,0.0,91,0.00,,,0.05,WUHU216HW,2013-02-21 03:51:00,
2013-02-20 19:56:00,35.5,33.3,29.85,East,90,0.0,0.0,92,0.00,,,0.05,WUHU216HW,2013-02-21 03:56:00,
2013-02-20 20:02:00,35.3,33.1,29.85,East,90,0.0,0.0,92,0.00,,,0.05,WUHU216HW,2013-02-21 04:02:00,
2013-02-20 20:07:00,34.9,32.8,29.85,East,90,0.0,0.0,92,0.00,,,0.05,WUHU216HW,2013-02-21 04:07:00,
2013-02-20 20:12:00,34.6,32.4,29.85,East,90,0.0,0.0,92,0.00,,,0.05,WUHU216HW,2013-02-21 04:12:00,
2013-02-20 20:17:00,34.2,32.0,29.85,East,90,0.0,0.0,92,0.00,,,0.05,WUHU216HW,2013-02-21 04:17:00,
2013-02-20 20:22:00,34.2,32.0,29.85,East,90,0.0,0.0,92,0.00,,,0.05,WUHU216HW,2013-02-21 04:22:00,
2013-02-20 20:27:00,34.2,32.0,29.85,East,90,0.0,0.0,92,0.00,,,0.05,WUHU216HW,2013-02-21 04:27:00,
2013-02-20 20:32:00,33.8,31.7,29.85,East,90,0.0,0.0,92,0.00,,,0.05,WUHU216HW,2013-02-21 04:32:00,
2013-02-20 20:37:00,33.5,31.3,29.85,East,90,0.0,0.0,92,0.00,,,0.05,WUHU216HW,2013-02-21 04:37:00,
2013-02-20 20:42:00,33.5,31.3,29.85,East,90,0.0,0.0,92,0.00,,,0.05,WUHU216HW,2013-02-21 04:42:00,
2013-02-20 20:47:00,33.5,31.3,29.85,ENE,68,0.0,0.0,92,0.00,,,0.05,WUHU216HW,2013-02-21 04:47:00,
2013-02-20 20:52:00,33.5,31.6,29.85,ENE,68,0.0,0.0,93,0.00,,,0.05,WUHU216HW,2013-02-21 04:52:00,
2013-02-20 20:57:00,33.5,31.3,29.85,ENE,68,0.0,0.0,92,0.00,,,0.05,WUHU216HW,2013-02-21 04:57:00,
2013-02-20 21:00:00,33.5,31.3,29.85,ENE,68,0.0,0.0,92,0.00,,,0.05,WUHU216HW,2013-02-21 05:00:00,
2013-02-20 21:05:00,33.8,32.0,29.86,ENE,68,0.0,0.0,93,0.00,,,0.05,WUHU216HW,2013-02-21 05:05:00,
2013-02-20 21:10:00,34.0,32.1,29.86,ENE,68,0.0,0.0,93,0.00,,,0.05,WUHU216HW,2013-02-21 05:10:00,
2013-02-20 21:15:00,34.2,32.3,29.86,ENE,68,0.0,0.0,93,0.00,,,0.05,WUHU216HW,2013-02-21 05:15:00,
2013-02-20 21:20:00,34.2,32.3,29.85,ENE,68,0.0,0.0,93,0.00,,,0.05,WUHU216HW,2013-02-21 05:20:00,
2013-02-20 21:25:00,34.4,32.2,29.85,ENE,68,0.0,0.0,92,0.00,,,0.05,WUHU216HW,2013-02-21 05:25:00,
2013-02-20 21:30:00,34.2,32.0,29.85,ENE,68,0.0,0.0,92,0.00,,,0.05,WUHU216HW,2013-02-21 05:30:00,
2013-02-20 21:35:00,34.4,32.2,29.86,ENE,68,0.0,0.0,92,0.00,,,0.05,WUHU216HW,2013-02-21 05:35:00,
2013-02-20 21:40:00,34.4,32.2,29.86,ENE,68,0.0,0.0,92,0.00,,,0.05,WUHU216HW,2013-02-21 05:40:00,
2013-02-20 21:45:00,34.6,32.7,29.86,ENE,68,0.0,0.0,93,0.00,,,0.05,WUHU216HW,2013-02-21 05:45:00,
2013-02-20 21:50:00,34.6,32.4,29.86,ENE,68,0.0,0.0,92,0.00,,,0.05,WUHU216HW,2013-02-21 05:50:00,
2013-02-20 21:55:00,34.7,32.9,29.86,ENE,68,0.0,0.0,93,0.00,,,0.05,WUHU216HW,2013-02-21 05:55:00,
2013-02-20 22:00:00,34.7,32.6,29.86,ENE,68,0.0,0.0,92,0.00,,,0.05,WUHU216HW,2013-02-21 06:00:00,
2013-02-20 22:05:00,34.7,32.6,29.86,SW,225,0.2,0.2,92,0.00,,,0.05,WUHU216HW,2013-02-21 06:05:00,
2013-02-20 22:10:00,34.9,32.8,29.86,South,180,0.0,0.4,92,0.00,,,0.05,WUHU216HW,2013-02-21 06:10:00,
2013-02-20 22:15:00,34.9,32.8,29.86,South,180,0.0,0.4,92,0.00,,,0.05,WUHU216HW,2013-02-21 06:15:00,
2013-02-20 22:20:00,34.9,33.0,29.86,South,180,0.0,0.0,93,0.00,,,0.05,WUHU216HW,2013-02-21 06:20:00,
2013-02-20 22:25:00,34.9,32.8,29.86,South,180,0.2,0.7,92,0.00,,,0.05,WUHU216HW,2013-02-21 06:25:00,
2013-02-20 22:30:00,35.1,32.9,29.87,South,180,0.4,0.9,92,0.00,,,0.05,WUHU216HW,2013-02-21 06:30:00,
2013-02-20 22:35:00,35.1,33.2,29.86,South,180,0.0,0.9,93,0.00,,,0.05,WUHU216HW,2013-02-21 06:35:00,
2013-02-20 22:40:00,34.9,32.8,29.86,South,180,0.0,0.2,92,0.00,,,0.05,WUHU216HW,2013-02-21 06:40:00,
2013-02-20 22:45:00,34.9,32.8,29.86,South,180,0.0,0.0,92,0.00,,,0.05,WUHU216HW,2013-02-21 06:45:00,
2013-02-20 22:50:00,34.9,33.0,29.86,SSW,203,0.0,0.0,93,0.00,,,0.05,WUHU216HW,2013-02-21 06:50:00,
2013-02-20 22:55:00,34.9,33.3,29.87,SSW,203,0.9,0.9,94,0.00,,,0.05,WUHU216HW,2013-02-21 06:55:00,
2013-02-20 23:00:00,35.1,33.5,29.87,NNE,23,0.0,1.1,94,0.00,,,0.05,WUHU216HW,2013-02-21 07:00:00,
2013-02-20 23:05:00,35.3,33.4,29.87,WNW,293,0.0,1.1,93,0.00,,,0.05,WUHU216HW,2013-02-21 07:05:00,
2013-02-20 23:10:00,35.3,33.4,29.87,NE,45,0.0,0.4,93,0.00,,,0.05,WUHU216HW,2013-02-21 07:10:00,
2013-02-20 23:15:00,35.3,33.4,29.87,NE,45,0.0,0.4,93,0.00,,,0.05,WUHU216HW,2013-02-21 07:15:00,
2013-02-20 23:20:00,35.3,33.4,29.86,SSE,158,0.0,0.0,93,0.00,,,0.05,WUHU216HW,2013-02-21 07:20:00,
2013-02-20 23:25:00,35.3,33.4,29.86,SSE,158,0.0,0.0,93,0.00,,,0.05,WUHU216HW,2013-02-21 07:25:00,
2013-02-20 23:30:00,35.3,33.4,29.86,SSE,158,0.0,0.0,93,0.00,,,0.05,WUHU216HW,2013-02-21 07:30:00,
2013-02-20 23:35:00,35.3,33.4,29.86,SSE,158,0.0,0.0,93,0.00,,,0.05,WUHU216HW,2013-02-21 07:35:00,
2013-02-20 23:40:00,35.1,33.2,29.86,SSW,203,0.0,0.0,93,0.00,,,0.05,WUHU216HW,2013-02-21 07:40:00,
2013-02-20 23:45:00,35.1,33.2,29.86,South,180,0.0,0.0,93,0.00,,,0.05,WUHU216HW,2013-02-21 07:45:00,
2013-02-20 23:50:00,35.1,33.2,29.86,SSE,158,0.2,0.2,93,0.00,,,0.05,WUHU216HW,2013-02-21 07:50:00,
2013-02-20 23:55:00,34.9,33.0,29.85,SSE,158,0.4,0.4,93,0.00,,,0.05,WUHU216HW,2013-02-21 07:55:00,